sensor_id;sensor_type;location;lat;lon;timestamp;temperature;humidity
20400;DHT22;10359;53.596;22.520;2023-12-07T00:08:01;-0.20;1.00
20400;DHT22;10359;53.596;22.520;2023-12-07T00:10:55;-0.20;1.00
20400;DHT22;10359;53.596;22.520;2023-12-07T00:13:46;-0.30;1.00
20400;DHT22;10359;53.596;22.520;2023-12-07T00:19:57;-0.40;1.00
20400;DHT22;10359;53.596;22.520;2023-12-07T00:26:09;-0.30;1.00
20400;DHT22;10359;53.596;22.520;2023-12-07T00:32:20;-0.30;1.00
20400;DHT22;10359;53.596;22.520;2023-12-07T00:38:31;-0.30;1.00
20400;DHT22;10359;53.596;22.520;2023-12-07T00:44:42;-0.30;1.00
20400;DHT22;10359;53.596;22.520;2023-12-07T00:51:07;-0.40;1.00
20400;DHT22;10359;53.596;22.520;2023-12-07T01:04:24;-0.40;1.00
20400;DHT22;10359;53.596;22.520;2023-12-07T01:14:03;-0.30;1.00
20400;DHT22;10359;53.596;22.520;2023-12-07T01:19:44;-0.30;1.00
20400;DHT22;10359;53.596;22.520;2023-12-07T01:22:23;0.10;1.00
20400;DHT22;10359;53.596;22.520;2023-12-07T01:28:34;-0.10;1.00
20400;DHT22;10359;53.596;22.520;2023-12-07T01:31:13;-0.10;1.00
20400;DHT22;10359;53.596;22.520;2023-12-07T01:33:43;0.00;1.00
20400;DHT22;10359;53.596;22.520;2023-12-07T01:36:14;-0.10;1.00
20400;DHT22;10359;53.596;22.520;2023-12-07T01:42:11;0.10;1.00
20400;DHT22;10359;53.596;22.520;2023-12-07T01:44:59;-0.10;1.00
20400;DHT22;10359;53.596;22.520;2023-12-07T01:57:41;-0.10;1.00
20400;DHT22;10359;53.596;22.520;2023-12-07T02:03:54;0.00;1.00
20400;DHT22;10359;53.596;22.520;2023-12-07T02:09:59;-0.10;1.00
20400;DHT22;10359;53.596;22.520;2023-12-07T02:16:45;-0.20;1.00
20400;DHT22;10359;53.596;22.520;2023-12-07T02:23:42;-0.20;1.00
20400;DHT22;10359;53.596;22.520;2023-12-07T02:30:30;0.10;1.00
20400;DHT22;10359;53.596;22.520;2023-12-07T02:33:29;-0.10;1.00
20400;DHT22;10359;53.596;22.520;2023-12-07T02:36:39;-0.10;1.00
20400;DHT22;10359;53.596;22.520;2023-12-07T02:43:27;0.00;1.00
20400;DHT22;10359;53.596;22.520;2023-12-07T02:50:10;-0.10;1.00
20400;DHT22;10359;53.596;22.520;2023-12-07T02:56:50;-0.20;1.00
20400;DHT22;10359;53.596;22.520;2023-12-07T03:03:36;0.00;1.00
20400;DHT22;10359;53.596;22.520;2023-12-07T03:10:18;-0.10;1.00
20400;DHT22;10359;53.596;22.520;2023-12-07T03:17:15;-0.10;1.00
20400;DHT22;10359;53.596;22.520;2023-12-07T03:24:02;0.00;1.00
20400;DHT22;10359;53.596;22.520;2023-12-07T03:30:44;-0.10;1.00
20400;DHT22;10359;53.596;22.520;2023-12-07T03:33:50;0.00;1.00
20400;DHT22;10359;53.596;22.520;2023-12-07T03:37:02;0.00;1.00
20400;DHT22;10359;53.596;22.520;2023-12-07T03:43:59;0.10;1.00
20400;DHT22;10359;53.596;22.520;2023-12-07T03:50:47;0.30;1.00
20400;DHT22;10359;53.596;22.520;2023-12-07T03:57:26;0.10;1.00
20400;DHT22;10359;53.596;22.520;2023-12-07T04:04:06;0.20;1.00
20400;DHT22;10359;53.596;22.520;2023-12-07T04:10:54;0.30;1.00
20400;DHT22;10359;53.596;22.520;2023-12-07T04:17:42;0.30;1.00
20400;DHT22;10359;53.596;22.520;2023-12-07T04:24:29;0.00;1.00
20400;DHT22;10359;53.596;22.520;2023-12-07T04:31:17;0.10;1.00
20400;DHT22;10359;53.596;22.520;2023-12-07T04:34:10;-0.10;1.00
20400;DHT22;10359;53.596;22.520;2023-12-07T04:37:19;0.10;1.00
20400;DHT22;10359;53.596;22.520;2023-12-07T04:43:59;0.40;1.00
20400;DHT22;10359;53.596;22.520;2023-12-07T04:50:47;0.30;1.00
20400;DHT22;10359;53.596;22.520;2023-12-07T04:57:27;0.10;1.00
20400;DHT22;10359;53.596;22.520;2023-12-07T05:04:07;0.00;1.00
20400;DHT22;10359;53.596;22.520;2023-12-07T05:10:56;0.20;1.00
20400;DHT22;10359;53.596;22.520;2023-12-07T05:17:36;0.30;1.00
20400;DHT22;10359;53.596;22.520;2023-12-07T05:24:38;0.10;1.00
20400;DHT22;10359;53.596;22.520;2023-12-07T05:31:26;0.40;1.00
20400;DHT22;10359;53.596;22.520;2023-12-07T05:34:17;0.20;1.00
20400;DHT22;10359;53.596;22.520;2023-12-07T05:37:13;0.20;1.00
20400;DHT22;10359;53.596;22.520;2023-12-07T05:44:08;0.40;1.00
20400;DHT22;10359;53.596;22.520;2023-12-07T05:50:49;0.50;1.00
20400;DHT22;10359;53.596;22.520;2023-12-07T05:57:28;0.30;1.00
20400;DHT22;10359;53.596;22.520;2023-12-07T06:04:15;0.50;1.00
20400;DHT22;10359;53.596;22.520;2023-12-07T06:11:03;0.40;1.00
20400;DHT22;10359;53.596;22.520;2023-12-07T06:17:42;0.30;1.00
20400;DHT22;10359;53.596;22.520;2023-12-07T06:24:22;0.30;1.00
20400;DHT22;10359;53.596;22.520;2023-12-07T06:31:12;0.40;1.00
20400;DHT22;10359;53.596;22.520;2023-12-07T06:34:30;0.60;1.00
20400;DHT22;10359;53.596;22.520;2023-12-07T06:37:33;0.30;1.00
20400;DHT22;10359;53.596;22.520;2023-12-07T06:44:14;0.50;1.00
20400;DHT22;10359;53.596;22.520;2023-12-07T06:51:02;0.30;1.00
20400;DHT22;10359;53.596;22.520;2023-12-07T06:57:48;0.30;1.00
20400;DHT22;10359;53.596;22.520;2023-12-07T07:04:45;0.40;1.00
20400;DHT22;10359;53.596;22.520;2023-12-07T07:11:36;0.50;1.00
20400;DHT22;10359;53.596;22.520;2023-12-07T07:18:16;0.40;1.00
20400;DHT22;10359;53.596;22.520;2023-12-07T07:33:01;0.30;1.00
20400;DHT22;10359;53.596;22.520;2023-12-07T07:35:57;0.40;1.00
20400;DHT22;10359;53.596;22.520;2023-12-07T07:46:08;0.30;1.00
20400;DHT22;10359;53.596;22.520;2023-12-07T07:53:07;0.40;1.00
20400;DHT22;10359;53.596;22.520;2023-12-07T07:56:39;0.50;1.00
20400;DHT22;10359;53.596;22.520;2023-12-07T07:59:28;0.40;1.00
20400;DHT22;10359;53.596;22.520;2023-12-07T08:06:15;0.50;1.00
20400;DHT22;10359;53.596;22.520;2023-12-07T08:12:57;0.10;1.00
20400;DHT22;10359;53.596;22.520;2023-12-07T08:19:42;0.40;11.40
20400;DHT22;10359;53.596;22.520;2023-12-07T08:23:06;0.50;1.00
20400;DHT22;10359;53.596;22.520;2023-12-07T08:26:02;0.30;1.00
20400;DHT22;10359;53.596;22.520;2023-12-07T08:32:40;0.30;1.00
20400;DHT22;10359;53.596;22.520;2023-12-07T08:35:42;0.40;1.00
20400;DHT22;10359;53.596;22.520;2023-12-07T08:46:39;0.60;1.00
20400;DHT22;10359;53.596;22.520;2023-12-07T08:53:30;0.60;1.00
20400;DHT22;10359;53.596;22.520;2023-12-07T09:00:10;0.60;1.00
20400;DHT22;10359;53.596;22.520;2023-12-07T09:06:59;0.80;1.00
20400;DHT22;10359;53.596;22.520;2023-12-07T09:13:57;0.80;1.00
20400;DHT22;10359;53.596;22.520;2023-12-07T09:20:43;1.00;1.00
20400;DHT22;10359;53.596;22.520;2023-12-07T09:27:25;1.10;1.00
20400;DHT22;10359;53.596;22.520;2023-12-07T09:34:06;0.90;1.00
20400;DHT22;10359;53.596;22.520;2023-12-07T09:40:53;1.10;1.00
20400;DHT22;10359;53.596;22.520;2023-12-07T09:47:40;1.10;1.00
20400;DHT22;10359;53.596;22.520;2023-12-07T09:54:29;0.90;1.00
20400;DHT22;10359;53.596;22.520;2023-12-07T10:05:03;1.00;1.00
20400;DHT22;10359;53.596;22.520;2023-12-07T10:11:45;0.90;1.00
20400;DHT22;10359;53.596;22.520;2023-12-07T10:18:36;0.90;1.00
20400;DHT22;10359;53.596;22.520;2023-12-07T10:25:15;1.00;1.00
20400;DHT22;10359;53.596;22.520;2023-12-07T10:36:05;1.20;1.00
20400;DHT22;10359;53.596;22.520;2023-12-07T10:42:57;1.20;1.00
20400;DHT22;10359;53.596;22.520;2023-12-07T10:49:53;1.20;1.00
20400;DHT22;10359;53.596;22.520;2023-12-07T10:56:46;1.20;1.00
20400;DHT22;10359;53.596;22.520;2023-12-07T11:03:39;1.10;1.00
20400;DHT22;10359;53.596;22.520;2023-12-07T11:10:20;1.30;1.00
20400;DHT22;10359;53.596;22.520;2023-12-07T11:17:17;1.30;1.00
20400;DHT22;10359;53.596;22.520;2023-12-07T11:23:50;1.30;1.00
20400;DHT22;10359;53.596;22.520;2023-12-07T11:30:24;1.10;1.00
20400;DHT22;10359;53.596;22.520;2023-12-07T11:41:01;1.00;1.00
20400;DHT22;10359;53.596;22.520;2023-12-07T11:47:35;1.00;1.00
20400;DHT22;10359;53.596;22.520;2023-12-07T11:58:14;1.30;1.00
20400;DHT22;10359;53.596;22.520;2023-12-07T12:05:05;0.90;1.00
20400;DHT22;10359;53.596;22.520;2023-12-07T12:11:57;1.30;1.00
20400;DHT22;10359;53.596;22.520;2023-12-07T12:22:32;1.00;1.00
20400;DHT22;10359;53.596;22.520;2023-12-07T12:29:05;0.80;1.00
20400;DHT22;10359;53.596;22.520;2023-12-07T12:36:02;1.00;1.00
20400;DHT22;10359;53.596;22.520;2023-12-07T12:46:40;0.40;1.00
20400;DHT22;10359;53.596;22.520;2023-12-07T12:53:31;0.10;1.00
20400;DHT22;10359;53.596;22.520;2023-12-07T13:00:22;0.20;1.00
20400;DHT22;10359;53.596;22.520;2023-12-07T13:06:57;0.10;1.00
20400;DHT22;10359;53.596;22.520;2023-12-07T13:13:40;0.10;1.00
20400;DHT22;10359;53.596;22.520;2023-12-07T13:20:31;0.10;1.00
20400;DHT22;10359;53.596;22.520;2023-12-07T13:27:44;0.10;1.00
20400;DHT22;10359;53.596;22.520;2023-12-07T13:34:17;-0.20;1.00
20400;DHT22;10359;53.596;22.520;2023-12-07T13:44:41;-0.20;1.00
20400;DHT22;10359;53.596;22.520;2023-12-07T13:51:33;-0.40;1.00
20400;DHT22;10359;53.596;22.520;2023-12-07T13:58:25;-0.50;1.00
20400;DHT22;10359;53.596;22.520;2023-12-07T14:05:00;-0.70;1.00
20400;DHT22;10359;53.596;22.520;2023-12-07T14:11:31;-0.90;1.00
20400;DHT22;10359;53.596;22.520;2023-12-07T14:18:22;-0.80;1.00
20400;DHT22;10359;53.596;22.520;2023-12-07T14:25:14;-1.50;1.00
20400;DHT22;10359;53.596;22.520;2023-12-07T14:31:32;-1.00;1.00
20400;DHT22;10359;53.596;22.520;2023-12-07T14:38:23;-1.00;1.00
20400;DHT22;10359;53.596;22.520;2023-12-07T14:45:15;-1.10;1.00
20400;DHT22;10359;53.596;22.520;2023-12-07T14:52:09;-1.00;1.00
20400;DHT22;10359;53.596;22.520;2023-12-07T14:58:59;-1.20;1.00
20400;DHT22;10359;53.596;22.520;2023-12-07T15:05:51;-1.30;1.00
20400;DHT22;10359;53.596;22.520;2023-12-07T15:12:25;-1.40;1.00
20400;DHT22;10359;53.596;22.520;2023-12-07T15:19:00;-1.40;1.00
20400;DHT22;10359;53.596;22.520;2023-12-07T15:25:54;-1.50;1.00
20400;DHT22;10359;53.596;22.520;2023-12-07T15:32:28;-1.30;1.00
20400;DHT22;10359;53.596;22.520;2023-12-07T15:39:19;-1.40;1.00
20400;DHT22;10359;53.596;22.520;2023-12-07T15:46:11;-1.30;1.00
20400;DHT22;10359;53.596;22.520;2023-12-07T15:56:46;-1.30;1.00
20400;DHT22;10359;53.596;22.520;2023-12-07T16:10:58;-1.60;1.00
20400;DHT22;10359;53.596;22.520;2023-12-07T16:17:32;-1.70;1.00
20400;DHT22;10359;53.596;22.520;2023-12-07T16:24:22;-1.50;1.00
20400;DHT22;10359;53.596;22.520;2023-12-07T16:31:15;-1.50;1.00
20400;DHT22;10359;53.596;22.520;2023-12-07T16:37:48;-1.60;1.00
20400;DHT22;10359;53.596;22.520;2023-12-07T16:41:12;-1.60;1.00
20400;DHT22;10359;53.596;22.520;2023-12-07T16:48:05;-1.50;1.00
20400;DHT22;10359;53.596;22.520;2023-12-07T16:54:38;-1.60;1.00
20400;DHT22;10359;53.596;22.520;2023-12-07T17:05:20;-1.90;1.00
20400;DHT22;10359;53.596;22.520;2023-12-07T17:12:11;-1.90;1.00
20400;DHT22;10359;53.596;22.520;2023-12-07T17:19:02;-1.80;1.00
20400;DHT22;10359;53.596;22.520;2023-12-07T17:25:54;-2.00;1.00
20400;DHT22;10359;53.596;22.520;2023-12-07T17:32:45;-1.90;1.00
20400;DHT22;10359;53.596;22.520;2023-12-07T17:39:36;-1.80;1.00
20400;DHT22;10359;53.596;22.520;2023-12-07T17:46:28;-2.10;1.00
20400;DHT22;10359;53.596;22.520;2023-12-07T17:53:01;-2.20;1.00
20400;DHT22;10359;53.596;22.520;2023-12-07T17:56:25;-2.10;1.00
20400;DHT22;10359;53.596;22.520;2023-12-07T18:06:27;-2.20;1.00
20400;DHT22;10359;53.596;22.520;2023-12-07T18:13:17;-2.30;1.00
20400;DHT22;10359;53.596;22.520;2023-12-07T18:20:10;-2.60;1.00
20400;DHT22;10359;53.596;22.520;2023-12-07T18:31:04;-2.60;1.00
20400;DHT22;10359;53.596;22.520;2023-12-07T18:41:25;-2.80;1.00
20400;DHT22;10359;53.596;22.520;2023-12-07T18:48:17;-2.80;1.00
20400;DHT22;10359;53.596;22.520;2023-12-07T18:55:09;-3.00;1.00
20400;DHT22;10359;53.596;22.520;2023-12-07T19:01:42;-3.10;1.00
20400;DHT22;10359;53.596;22.520;2023-12-07T19:08:17;-3.10;1.00
20400;DHT22;10359;53.596;22.520;2023-12-07T19:15:09;-3.10;1.00
20400;DHT22;10359;53.596;22.520;2023-12-07T19:21:43;-2.90;1.00
20400;DHT22;10359;53.596;22.520;2023-12-07T19:28:18;-3.10;1.00
20400;DHT22;10359;53.596;22.520;2023-12-07T19:35:09;-3.10;1.00
20400;DHT22;10359;53.596;22.520;2023-12-07T19:41:28;-3.30;1.00
20400;DHT22;10359;53.596;22.520;2023-12-07T19:48:21;-3.20;1.00
20400;DHT22;10359;53.596;22.520;2023-12-07T19:55:12;-3.30;1.00
20400;DHT22;10359;53.596;22.520;2023-12-07T20:01:46;-3.50;1.00
20400;DHT22;10359;53.596;22.520;2023-12-07T20:08:38;-3.30;1.00
20400;DHT22;10359;53.596;22.520;2023-12-07T20:15:30;-3.30;1.00
20400;DHT22;10359;53.596;22.520;2023-12-07T20:22:04;-3.30;1.00
20400;DHT22;10359;53.596;22.520;2023-12-07T20:32:21;-3.20;1.00
20400;DHT22;10359;53.596;22.520;2023-12-07T20:38:55;-3.40;1.00
20400;DHT22;10359;53.596;22.520;2023-12-07T20:49:47;-3.40;1.00
20400;DHT22;10359;53.596;22.520;2023-12-07T20:52:46;-3.40;1.00
20400;DHT22;10359;53.596;22.520;2023-12-07T20:59:37;-3.40;1.00
20400;DHT22;10359;53.596;22.520;2023-12-07T21:06:29;-3.60;1.00
20400;DHT22;10359;53.596;22.520;2023-12-07T21:13:03;-3.70;1.00
20400;DHT22;10359;53.596;22.520;2023-12-07T21:19:53;-3.70;1.00
20400;DHT22;10359;53.596;22.520;2023-12-07T21:26:46;-3.80;1.00
20400;DHT22;10359;53.596;22.520;2023-12-07T21:33:19;-3.60;1.00
20400;DHT22;10359;53.596;22.520;2023-12-07T21:39:53;-3.70;1.00
20400;DHT22;10359;53.596;22.520;2023-12-07T21:43:18;-3.60;1.00
20400;DHT22;10359;53.596;22.520;2023-12-07T21:50:09;-3.60;1.00
20400;DHT22;10359;53.596;22.520;2023-12-07T21:56:59;-3.70;1.00
20400;DHT22;10359;53.596;22.520;2023-12-07T22:03:52;-3.80;1.00
20400;DHT22;10359;53.596;22.520;2023-12-07T22:10:43;-3.70;1.00
20400;DHT22;10359;53.596;22.520;2023-12-07T22:17:17;-3.80;1.00
20400;DHT22;10359;53.596;22.520;2023-12-07T22:24:09;-3.50;1.00
20400;DHT22;10359;53.596;22.520;2023-12-07T22:31:00;-3.40;1.00
20400;DHT22;10359;53.596;22.520;2023-12-07T22:37:50;-3.60;1.00
20400;DHT22;10359;53.596;22.520;2023-12-07T22:40:49;-3.60;1.00
20400;DHT22;10359;53.596;22.520;2023-12-07T22:47:40;-3.60;1.00
20400;DHT22;10359;53.596;22.520;2023-12-07T22:54:31;-3.70;1.00
20400;DHT22;10359;53.596;22.520;2023-12-07T23:01:24;-3.60;1.00
20400;DHT22;10359;53.596;22.520;2023-12-07T23:07:58;-3.80;1.00
20400;DHT22;10359;53.596;22.520;2023-12-07T23:14:49;-3.50;1.00
20400;DHT22;10359;53.596;22.520;2023-12-07T23:25:10;-3.60;1.00
20400;DHT22;10359;53.596;22.520;2023-12-07T23:32:05;-3.40;1.00
20400;DHT22;10359;53.596;22.520;2023-12-07T23:38:57;-3.50;1.00
20400;DHT22;10359;53.596;22.520;2023-12-07T23:45:50;-3.60;1.00
20400;DHT22;10359;53.596;22.520;2023-12-07T23:52:40;-3.40;1.00
20400;DHT22;10359;53.596;22.520;2023-12-07T23:59:13;-3.50;1.00
